Tuxedo, New York
Current Conditions -  °F | °C
As of 2:53 PM on Saturday 25 Oct 2014 (Local Time) from KFWN Reporting Station
Clear Clear  
Wind Chill: 19°   Ceiling: Unl
Heat Index: 19°   Visibility: 10mi
Dew Point:   Wind: 8mph
Humidity: 40%   Direction: 250°WSW
Pressure: 29.69"   Gusts: NA
Location:  41.1969°N, 74.224°W
Report Text: KFWN 251853Z AUTO 25007KT 10SM CLR 19/06 A2969 RMK AO2 SLP053 T01940056
Loading
Personal Weather Stations






























Interactive Weather Map
Tropical Storm Tracking
New forecast layout! Learn more

10-Day Weather Forecast

Advertisements
Track Severe Weather on mobile